createdAt,value
2019-01-19T00:01:34.444Z,19.50
2019-01-19T00:04:44.686Z,20.00
2019-01-19T00:08:22.376Z,23.00
2019-01-19T00:11:08.053Z,23.50
2019-01-19T00:14:09.182Z,22.00
2019-01-19T00:17:09.393Z,25.50
2019-01-19T00:20:10.322Z,21.00
2019-01-19T00:23:24.904Z,23.00
2019-01-19T00:26:24.776Z,25.50
2019-01-19T00:29:11.985Z,22.50
2019-01-19T00:31:51.616Z,21.00
2019-01-19T00:35:04.058Z,22.50
2019-01-19T00:38:07.880Z,21.50
2019-01-19T00:41:23.235Z,22.00
2019-01-19T00:44:15.710Z,22.00
2019-01-19T00:47:10.556Z,20.50
2019-01-19T00:50:20.768Z,27.00
2019-01-19T00:53:01.420Z,21.50
2019-01-19T00:56:11.738Z,20.00
2019-01-19T00:59:04.931Z,20.50
2019-01-19T01:02:22.887Z,19.00
2019-01-19T01:05:36.198Z,22.00
2019-01-19T01:08:46.954Z,20.00
2019-01-19T01:12:05.496Z,19.50
2019-01-19T01:15:14.638Z,23.50
2019-01-19T01:17:56.306Z,23.00
2019-01-19T01:20:56.244Z,22.00
2019-01-19T01:23:55.759Z,19.00
2019-01-19T01:27:24.355Z,18.50
2019-01-19T01:30:37.841Z,18.50
2019-01-19T01:33:59.192Z,21.00
2019-01-19T01:36:56.592Z,15.00
2019-01-19T01:40:01.967Z,27.00
2019-01-19T01:42:57.036Z,23.50
2019-01-19T01:46:18.359Z,19.50
2019-01-19T01:49:22.689Z,19.00
2019-01-19T01:52:20.151Z,20.00
2019-01-19T01:55:26.133Z,18.50
2019-01-19T01:58:38.449Z,19.50
2019-01-19T02:01:35.894Z,18.00
2019-01-19T02:04:51.162Z,18.00
2019-01-19T02:08:03.813Z,22.50
2019-01-19T02:11:18.368Z,19.00
2019-01-19T02:14:06.083Z,15.50
2019-01-19T02:17:05.796Z,19.00
2019-01-19T02:20:17.554Z,19.50
2019-01-19T02:23:22.295Z,19.00
2019-01-19T02:26:22.675Z,20.50
2019-01-19T02:29:35.785Z,19.00
2019-01-19T02:32:30.901Z,18.00
2019-01-19T02:35:39.949Z,15.50
2019-01-19T02:38:31.038Z,20.00
2019-01-19T02:41:29.003Z,18.00
2019-01-19T02:44:36.313Z,17.50
2019-01-19T02:47:47.467Z,21.00
2019-01-19T02:50:41.388Z,18.50
2019-01-19T02:53:36.545Z,20.50
2019-01-19T02:56:31.107Z,19.50
2019-01-19T02:59:41.065Z,18.00
2019-01-19T03:02:49.759Z,18.00
2019-01-19T03:05:44.724Z,20.00
2019-01-19T03:08:37.002Z,19.50
2019-01-19T03:11:23.407Z,18.00
2019-01-19T03:14:26.821Z,18.50
2019-01-19T03:17:39.468Z,21.00
2019-01-19T03:21:02.439Z,18.50
2019-01-19T03:24:13.957Z,18.50
2019-01-19T03:26:53.115Z,17.50
2019-01-19T03:29:55.085Z,20.00
2019-01-19T03:33:23.958Z,21.00
2019-01-19T03:36:29.166Z,21.50
2019-01-19T03:39:17.743Z,18.00
2019-01-19T03:42:38.007Z,16.50
2019-01-19T03:45:38.488Z,19.00
2019-01-19T03:48:56.672Z,19.00
2019-01-19T03:51:56.144Z,16.00
2019-01-19T03:54:47.560Z,20.00
2019-01-19T03:58:03.863Z,21.00
2019-01-19T04:01:09.692Z,20.50
2019-01-19T04:04:18.516Z,19.50
2019-01-19T04:07:31.425Z,20.00
2019-01-19T04:10:16.094Z,21.50
2019-01-19T04:13:05.448Z,21.50
2019-01-19T04:15:58.908Z,17.50
2019-01-19T04:18:55.289Z,21.00
2019-01-19T04:21:47.392Z,20.50
2019-01-19T04:24:21.113Z,21.50
2019-01-19T04:26:54.854Z,16.00
2019-01-19T04:29:25.600Z,17.50
2019-01-19T04:31:58.045Z,16.50
2019-01-19T04:34:30.516Z,21.00
2019-01-19T04:36:59.967Z,23.50
2019-01-19T04:39:29.222Z,24.00
2019-01-19T04:41:58.380Z,18.50
2019-01-19T04:44:27.509Z,18.50
2019-01-19T04:46:56.555Z,22.00
2019-01-19T04:49:28.572Z,19.00
2019-01-19T04:51:57.931Z,20.00
2019-01-19T04:54:27.319Z,23.00
2019-01-19T04:56:57.453Z,18.00
2019-01-19T04:59:26.873Z,20.50
2019-01-19T05:01:56.200Z,22.50
2019-01-19T05:04:27.059Z,19.50
2019-01-19T05:06:56.293Z,17.50
2019-01-19T05:09:25.408Z,20.00
2019-01-19T05:12:00.055Z,17.50
2019-01-19T05:14:29.411Z,20.50
2019-01-19T05:17:05.883Z,22.00
2019-01-19T05:19:40.420Z,21.00
2019-01-19T05:22:12.994Z,22.50
2019-01-19T05:24:45.692Z,23.50
2019-01-19T05:27:15.133Z,21.00
2019-01-19T05:29:44.702Z,21.00
2019-01-19T05:32:20.899Z,23.50
2019-01-19T05:35:01.401Z,26.50
2019-01-19T05:37:38.877Z,26.50
2019-01-19T05:44:41.254Z,23.50
2019-01-19T05:47:13.227Z,21.00
2019-01-19T05:53:50.224Z,24.00
2019-01-19T05:56:16.886Z,18.50
2019-01-19T05:58:46.289Z,22.00
2019-01-19T06:01:25.814Z,17.50
2019-01-19T06:04:51.116Z,21.50
2019-01-19T06:11:31.639Z,16.00
2019-01-19T06:14:01.249Z,16.50
2019-01-19T06:16:30.681Z,16.00
2019-01-19T06:18:59.936Z,20.00
2019-01-19T06:21:49.719Z,21.50
2019-01-19T06:24:27.928Z,15.00
2019-01-19T06:26:58.168Z,20.00
2019-01-19T06:29:39.982Z,21.50
2019-01-19T06:32:13.363Z,19.50
2019-01-19T06:34:45.601Z,20.50
2019-01-19T06:37:36.309Z,18.50
2019-01-19T06:40:49.050Z,19.00
2019-01-19T06:43:38.921Z,17.00
2019-01-19T06:46:08.394Z,19.50
2019-01-19T06:48:38.609Z,21.50
2019-01-19T06:58:21.883Z,16.50
2019-01-19T06:58:36.228Z,18.00
2019-01-19T07:00:51.101Z,20.00
2019-01-19T07:03:40.695Z,19.00
2019-01-19T07:06:25.374Z,17.00
2019-01-19T07:17:16.314Z,18.50
2019-01-19T07:59:07.589Z,21.00
2019-01-19T08:01:39.786Z,22.50
2019-01-19T08:04:12.130Z,21.50
2019-01-19T08:06:41.331Z,18.00
2019-01-19T08:09:10.637Z,20.00
2019-01-19T08:11:52.047Z,21.50
2019-01-19T08:14:24.085Z,23.00
2019-01-19T08:16:57.606Z,22.00
2019-01-19T08:19:45.446Z,21.50
2019-01-19T08:22:19.126Z,23.50
2019-01-19T08:24:48.968Z,19.00
2019-01-19T08:27:18.963Z,20.50
2019-01-19T08:29:50.938Z,23.50
2019-01-19T08:32:20.345Z,20.50
2019-01-19T08:34:49.764Z,23.00
2019-01-19T08:37:26.490Z,18.00
2019-01-19T08:39:57.122Z,25.00
2019-01-19T08:42:26.212Z,19.00
2019-01-19T08:44:57.056Z,23.00
2019-01-19T08:47:27.959Z,21.00
2019-01-19T08:49:58.074Z,22.00
2019-01-19T08:52:30.180Z,28.50
2019-01-19T08:54:59.293Z,23.50
2019-01-19T08:57:28.334Z,24.50
2019-01-19T09:00:02.054Z,25.00
2019-01-19T09:02:32.197Z,23.00
2019-01-19T09:05:03.232Z,25.50
2019-01-19T09:07:34.367Z,25.50
2019-01-19T09:10:05.782Z,24.50
2019-01-19T09:12:35.218Z,25.50
2019-01-19T09:15:08.916Z,24.50
2019-01-19T09:17:40.471Z,23.00
2019-01-19T09:20:13.567Z,26.50
2019-01-19T09:22:44.139Z,25.50
2019-01-19T09:25:16.177Z,25.00
2019-01-19T09:27:46.074Z,23.50
2019-01-19T09:30:24.693Z,22.50
2019-01-19T09:32:56.043Z,24.00
2019-01-19T09:35:26.188Z,24.00
2019-01-19T09:37:55.582Z,26.00
2019-01-19T09:40:25.042Z,26.50
2019-01-19T09:42:54.529Z,27.50
2019-01-19T09:45:23.728Z,24.50
2019-01-19T09:47:53.894Z,20.50
2019-01-19T09:50:23.456Z,24.50
2019-01-19T09:52:52.511Z,27.00
2019-01-19T09:55:21.633Z,26.00
2019-01-19T09:57:51.478Z,28.00
2019-01-19T10:00:21.665Z,25.00
2019-01-19T10:02:52.922Z,29.50
2019-01-19T10:05:22.641Z,24.00
2019-01-19T10:07:51.803Z,26.50
2019-01-19T10:10:21.366Z,29.50
2019-01-19T10:12:50.548Z,24.00
2019-01-19T10:15:19.729Z,25.50
2019-01-19T10:17:48.954Z,24.50
2019-01-19T10:20:20.049Z,24.50
2019-01-19T10:22:49.228Z,24.50
2019-01-19T10:25:18.460Z,22.50
2019-01-19T10:27:47.739Z,28.50
2019-01-19T10:30:18.956Z,27.50
2019-01-19T10:32:49.686Z,24.00
2019-01-19T10:35:19.827Z,25.00
2019-01-19T10:37:56.135Z,25.50
2019-01-19T10:40:22.291Z,28.00
2019-01-19T10:42:53.678Z,26.50
2019-01-19T10:45:27.324Z,22.00
2019-01-19T10:47:56.508Z,22.50
2019-01-19T10:50:27.736Z,23.50
2019-01-19T10:52:58.448Z,22.50
2019-01-19T10:55:27.668Z,20.00
2019-01-19T10:57:56.795Z,24.00
2019-01-19T11:00:28.378Z,24.00
2019-01-19T11:02:59.585Z,19.50
2019-01-19T11:05:29.496Z,17.50
2019-01-19T11:08:12.814Z,20.00
2019-01-19T11:10:53.604Z,18.50
2019-01-19T11:17:05.318Z,20.50
2019-01-19T11:23:27.320Z,16.50
2019-01-19T11:26:59.675Z,18.00
2019-01-19T11:33:33.637Z,18.00
2019-01-19T11:40:18.273Z,18.00
2019-01-19T11:42:50.466Z,19.00
2019-01-19T11:45:20.958Z,21.50
2019-01-19T11:47:50.150Z,32.50
2019-01-19T11:50:19.736Z,23.00
2019-01-19T11:52:48.984Z,19.50
2019-01-19T11:55:21.530Z,17.00
2019-01-19T11:57:55.220Z,23.50
2019-01-19T12:00:26.333Z,20.00
2019-01-19T12:02:55.696Z,23.50
2019-01-19T12:05:24.788Z,20.00
2019-01-19T12:07:55.030Z,18.00
2019-01-19T12:10:26.379Z,21.00
2019-01-19T12:12:55.542Z,20.50
2019-01-19T12:15:26.212Z,19.00
2019-01-19T12:17:55.359Z,20.00
2019-01-19T12:20:29.579Z,21.50
2019-01-19T12:22:58.789Z,23.50
2019-01-19T12:25:27.968Z,20.50
2019-01-19T12:27:57.116Z,22.00
2019-01-19T12:30:28.073Z,19.50
2019-01-19T12:32:57.529Z,23.00
2019-01-19T12:35:28.231Z,19.50
2019-01-19T12:37:59.105Z,19.00
2019-01-19T12:40:29.650Z,21.50
2019-01-19T12:43:04.823Z,16.50
2019-01-19T12:45:38.559Z,21.50
2019-01-19T12:48:07.691Z,17.00
2019-01-19T12:50:39.005Z,18.50
2019-01-19T12:53:08.210Z,17.50
2019-01-19T12:55:44.381Z,20.00
2019-01-19T12:58:13.916Z,17.50
2019-01-19T13:00:45.202Z,21.00
2019-01-19T13:03:14.444Z,20.50
2019-01-19T13:06:07.130Z,17.00
2019-01-19T13:08:37.378Z,16.00
2019-01-19T13:11:27.486Z,19.50
2019-01-19T13:14:03.246Z,18.00
2019-01-19T13:16:59.203Z,18.00
2019-01-19T13:19:58.271Z,16.00
2019-01-19T13:23:07.312Z,18.00
2019-01-19T13:26:23.677Z,17.00
2019-01-19T13:29:42.618Z,16.00
2019-01-19T13:33:11.168Z,20.00
2019-01-19T13:36:28.900Z,14.00
2019-01-19T13:39:07.549Z,18.00
2019-01-19T13:42:07.871Z,20.50
2019-01-19T13:45:00.497Z,20.00
2019-01-19T13:48:28.707Z,17.00
2019-01-19T13:51:31.071Z,16.00
2019-01-19T13:54:45.781Z,17.50
2019-01-19T13:58:04.029Z,14.00
2019-01-19T14:01:14.496Z,13.00
2019-01-19T14:04:13.166Z,15.00
2019-01-19T14:07:17.879Z,19.00
2019-01-19T14:10:07.555Z,20.00
2019-01-19T14:13:39.744Z,21.50
2019-01-19T14:16:25.951Z,16.00
2019-01-19T14:19:50.792Z,14.00
2019-01-19T14:23:01.177Z,17.00
2019-01-19T14:25:58.326Z,15.00
2019-01-19T14:28:59.821Z,14.00
2019-01-19T14:31:59.641Z,14.50
2019-01-19T14:34:51.790Z,12.00
2019-01-19T14:38:03.518Z,16.00
2019-01-19T14:40:43.128Z,14.50
2019-01-19T14:43:45.655Z,16.50
2019-01-19T14:46:33.169Z,16.00
2019-01-19T14:49:33.337Z,15.50
2019-01-19T14:52:40.073Z,12.00
2019-01-19T14:55:41.584Z,18.50
2019-01-19T14:58:35.678Z,10.00
2019-01-19T15:01:30.660Z,15.00
2019-01-19T15:04:18.053Z,15.00
2019-01-19T15:07:24.143Z,16.00
2019-01-19T15:10:23.226Z,13.00
2019-01-19T15:13:28.905Z,15.00
2019-01-19T15:16:34.824Z,13.50
2019-01-19T15:20:00.969Z,14.50
2019-01-19T15:23:02.731Z,13.00
2019-01-19T15:26:07.955Z,13.50
2019-01-19T15:29:05.551Z,14.00
2019-01-19T15:32:01.278Z,14.00
2019-01-19T15:35:22.225Z,13.50
2019-01-19T15:38:20.419Z,15.50
2019-01-19T15:41:57.908Z,14.00
2019-01-19T15:45:16.908Z,14.00
2019-01-19T15:48:27.157Z,15.00
2019-01-19T15:51:21.207Z,11.50
2019-01-19T15:54:27.131Z,18.00
2019-01-19T15:57:21.150Z,24.00
2019-01-19T16:00:22.855Z,16.00
2019-01-19T16:03:44.429Z,20.50
2019-01-19T16:06:30.903Z,22.00
2019-01-19T16:09:22.126Z,22.00
2019-01-19T16:12:30.109Z,32.00
2019-01-19T16:15:34.352Z,25.00
2019-01-19T16:18:28.010Z,31.50
2019-01-19T16:21:13.187Z,27.50
2019-01-19T16:24:23.525Z,18.00
2019-01-19T16:27:17.928Z,16.50
2019-01-19T16:30:27.637Z,18.00
2019-01-19T16:33:28.358Z,15.50
2019-01-19T16:36:07.080Z,20.00
2019-01-19T16:39:13.327Z,18.00
2019-01-19T16:42:12.128Z,17.50
2019-01-19T16:46:04.244Z,18.00
2019-01-19T16:56:57.660Z,16.50
2019-01-19T17:03:20.737Z,20.00
2019-01-19T17:06:19.542Z,16.50
2019-01-19T17:09:01.654Z,17.50
2019-01-19T17:12:04.339Z,17.50
2019-01-19T17:15:20.303Z,17.50
2019-01-19T17:18:14.148Z,16.50
2019-01-19T17:21:47.143Z,14.50
2019-01-19T17:24:30.515Z,15.50
2019-01-19T17:27:42.512Z,19.50
2019-01-19T17:30:54.586Z,15.50
2019-01-19T17:34:15.940Z,16.00
2019-01-19T17:37:12.727Z,14.00
2019-01-19T17:40:14.621Z,16.50
2019-01-19T17:43:35.440Z,17.00
2019-01-19T17:46:40.624Z,14.00
2019-01-19T17:49:33.251Z,18.00
2019-01-19T17:52:25.066Z,15.00
2019-01-19T17:55:17.153Z,14.00
2019-01-19T17:58:16.921Z,16.00
2019-01-19T18:01:21.591Z,17.00
2019-01-19T18:04:12.726Z,16.00
2019-01-19T18:07:12.100Z,20.50
2019-01-19T18:10:30.960Z,18.00
2019-01-19T18:13:36.869Z,14.00
2019-01-19T18:16:52.647Z,17.00
2019-01-19T18:20:07.278Z,20.00
2019-01-19T18:22:56.396Z,19.50
2019-01-19T18:26:07.487Z,15.50
2019-01-19T18:29:03.946Z,11.00
2019-01-19T18:32:28.883Z,18.00
2019-01-19T18:35:11.258Z,14.50
2019-01-19T18:37:51.872Z,17.50
2019-01-19T18:41:01.555Z,14.00
2019-01-19T18:44:00.813Z,20.50
2019-01-19T18:46:49.533Z,13.00
2019-01-19T18:50:02.844Z,18.00
2019-01-19T18:53:11.646Z,18.00
2019-01-19T18:56:28.588Z,14.00
2019-01-19T18:59:46.192Z,15.50
2019-01-19T19:02:37.251Z,14.50
2019-01-19T19:05:54.997Z,19.50
2019-01-19T19:09:01.686Z,18.00
2019-01-19T19:11:50.725Z,14.50
2019-01-19T19:14:50.018Z,13.50
2019-01-19T19:17:57.331Z,14.50
2019-01-19T19:20:54.527Z,15.50
2019-01-19T19:23:59.807Z,14.00
2019-01-19T19:26:56.256Z,13.50
2019-01-19T19:29:57.299Z,14.00
2019-01-19T19:32:57.516Z,18.00
2019-01-19T19:36:18.978Z,15.00
2019-01-19T19:39:10.086Z,19.00
2019-01-19T19:42:19.479Z,14.00
2019-01-19T19:45:33.952Z,13.50
2019-01-19T19:48:39.686Z,15.00
2019-01-19T19:51:58.787Z,16.50
2019-01-19T19:54:31.517Z,13.00
2019-01-19T19:57:04.037Z,12.00
2019-01-19T19:59:35.284Z,15.50
2019-01-19T20:02:04.887Z,22.00
2019-01-19T20:04:34.216Z,13.50
2019-01-19T20:07:03.694Z,12.50
2019-01-19T20:09:33.231Z,13.50
2019-01-19T20:12:10.170Z,14.00
2019-01-19T20:14:39.256Z,15.50
2019-01-19T20:17:08.613Z,16.00
2019-01-19T20:19:37.787Z,18.50
2019-01-19T20:22:08.226Z,13.00
2019-01-19T20:24:37.336Z,13.00
2019-01-19T20:27:07.214Z,16.50
2019-01-19T20:29:36.269Z,16.00
2019-01-19T20:32:06.455Z,15.00
2019-01-19T20:34:35.919Z,16.50
2019-01-19T20:37:05.908Z,15.00
2019-01-19T20:39:41.008Z,14.50
2019-01-19T20:42:13.669Z,16.00
2019-01-19T20:44:44.217Z,13.00
2019-01-19T20:47:13.855Z,12.00
2019-01-19T20:49:43.976Z,12.00
2019-01-19T20:52:15.922Z,11.50
2019-01-19T20:54:45.452Z,13.50
2019-01-19T20:57:14.713Z,14.50
2019-01-19T20:59:44.168Z,12.00
2019-01-19T21:02:13.454Z,12.00
2019-01-19T21:04:42.767Z,15.00
2019-01-19T21:07:12.029Z,10.00
2019-01-19T21:09:43.380Z,12.00
2019-01-19T21:12:12.566Z,10.00
2019-01-19T21:14:41.658Z,13.50
2019-01-19T21:17:10.630Z,18.00
2019-01-19T21:19:39.706Z,15.00
2019-01-19T21:22:08.778Z,14.50
2019-01-19T21:24:37.894Z,16.50
2019-01-19T21:27:07.003Z,16.50
2019-01-19T21:29:36.019Z,14.00
2019-01-19T21:32:05.188Z,12.00
2019-01-19T21:34:34.386Z,13.50
2019-01-19T21:37:05.860Z,13.00
2019-01-19T21:39:34.878Z,14.50
2019-01-19T21:42:04.060Z,12.00
2019-01-19T21:45:24.873Z,16.00
2019-01-19T21:47:55.699Z,14.00
2019-01-19T21:50:24.805Z,12.00
2019-01-19T21:52:53.960Z,15.00
2019-01-19T21:55:23.075Z,14.50
2019-01-19T21:57:52.128Z,17.50
2019-01-19T22:00:27.371Z,14.00
2019-01-19T22:02:52.112Z,15.50
2019-01-19T22:05:21.263Z,12.00
2019-01-19T22:07:50.299Z,14.00
2019-01-19T22:10:19.712Z,13.50
2019-01-19T22:12:51.809Z,13.50
2019-01-19T22:15:20.979Z,16.50
2019-01-19T22:17:50.144Z,14.00
2019-01-19T22:20:19.514Z,16.00
2019-01-19T22:22:49.750Z,16.00
2019-01-19T22:25:18.919Z,12.50
2019-01-19T22:27:49.105Z,12.00
2019-01-19T22:30:20.527Z,13.50
2019-01-19T22:32:53.670Z,15.50
2019-01-19T22:35:24.582Z,12.00
2019-01-19T22:37:53.811Z,16.50
2019-01-19T22:40:22.968Z,10.50
2019-01-19T22:42:52.728Z,15.00
2019-01-19T22:45:22.290Z,14.50
2019-01-19T22:47:51.340Z,11.00
2019-01-19T22:50:20.416Z,12.50
2019-01-19T22:52:49.517Z,13.50
2019-01-19T22:55:19.658Z,14.00
2019-01-19T22:57:48.838Z,15.50
2019-01-19T23:00:29.876Z,13.00
2019-01-19T23:03:01.291Z,14.00
2019-01-19T23:05:30.465Z,14.00
2019-01-19T23:08:00.360Z,13.00
2019-01-19T23:10:29.615Z,13.50
2019-01-19T23:12:58.636Z,12.50
2019-01-19T23:15:27.755Z,14.50
2019-01-19T23:17:56.758Z,14.50
2019-01-19T23:20:26.967Z,12.50
2019-01-19T23:22:56.177Z,12.00
2019-01-19T23:25:25.389Z,12.50
2019-01-19T23:27:54.789Z,14.00
2019-01-19T23:30:24.004Z,12.00
2019-01-19T23:32:53.114Z,12.00
2019-01-19T23:35:28.237Z,17.50
2019-01-19T23:37:59.157Z,14.00
2019-01-19T23:40:31.018Z,13.50
2019-01-19T23:43:02.174Z,14.00
2019-01-19T23:45:32.498Z,13.50
2019-01-19T23:48:01.615Z,13.50
2019-01-19T23:50:30.731Z,10.50
2019-01-19T23:52:59.764Z,12.00
2019-01-19T23:55:28.864Z,13.50
2019-01-19T23:57:58.017Z,12.00
